• Join FlightAware (Why Join?)
  • Login
  • US Flag 
04:39AM EDT


 

Airport Tracker/Info


-or-


 

Live Flight TrackerFlight Track Log ✈ EJA646 ✈ 14-Apr-2013 ✈ KCRE - KAGS

Flight Track Log - Related Links

Times and Time Zones

All times are in EDT time to prevent confusion due to time zone crossing. See the EJA646 flight status page for this flight to view local times or setup timezone preferences in your user account.

Time Position Orientation Groundspeed Altitude Reporting Facility
EDT Latitude Longitude Course Direction KTS MPH feet Rate Location/Type
05:39PM 33.7500 -78.8261 261° West 264 304 7,300  Level Jacksonville Center
05:40PM 33.7486 -78.9086 269° West 278 320 9,000 2,040 Climbing Jacksonville Center
05:41PM 33.7264 -79.0022 254° West 283 326 11,400 2,160 Climbing Jacksonville Center
05:42PM 33.7128 -79.1025 261° West 294 338 13,400 1,200 Climbing Jacksonville Center
05:43PM 33.8167 -79.2178 270° West  Level FlightAware Approximate
05:43PM 33.7222 -79.2094 276° West 312 359 13,900  Level Jacksonville Center
05:44PM 33.7294 -79.3167 275° West 319 367 14,000  Climbing Jacksonville Center
05:45PM 33.7383 -79.4161 276° West 314 361 14,000  Level Jacksonville Center
05:46PM 33.7517 -79.5206 279° West 303 349 14,000  Level Jacksonville Center
05:47PM 33.7564 -79.6178 273° West 303 349 14,000  Level Jacksonville Center
05:48PM 33.7650 -79.7122 276° West 298 343 14,000  Level Jacksonville Center
05:49PM 33.7717 -79.8094 275° West 292 336 14,000  Level Jacksonville Center
05:50PM 33.7803 -79.9067 276° West 292 336 14,000  Level Jacksonville Center
05:51PM 33.7889 -80.0064 276° West 292 336 14,000  Level Jacksonville Center
05:52PM 33.7931 -80.1036 273° West 292 336 14,000 -60 Level Jacksonville Center
05:53PM 33.7994 -80.2058 274° West 292 336 13,900 -60 Descending Jacksonville Center
05:54PM 33.7869 -80.3011 261° West 292 336 13,900  Level Jacksonville Center
05:55PM 33.7742 -80.4017 261° West 297 342 13,900  Level Jacksonville Center
05:56PM 33.7636 -80.4992 263° West 297 342 13,900  Level Jacksonville Center
05:57PM 33.7486 -80.5919 259° West 292 336 13,900  Level Jacksonville Center
05:58PM 33.7400 -80.6872 264° West 292 336 13,900  Level Jacksonville Center
05:59PM 33.7269 -80.7800 260° West 292 336 13,900  Level Jacksonville Center
06:00PM 33.7139 -80.8775 261° West 292 336 13,900  Level Jacksonville Center
06:01PM 33.7008 -80.9753 261° West 292 336 13,900  Level Jacksonville Center
06:02PM 33.6878 -81.0778 261° West 298 343 13,900  Level Jacksonville Center
06:03PM 33.6744 -81.1806 261° West 304 350 13,900  Level Jacksonville Center
06:05PM 33.6500 -81.3300 270° West  Level FlightAware Approximate
06:12PM 33.4021 -81.8799 234° Southwest  Level FlightAware Approximate
06:13PM 33.3667 -81.9500 239° Southwest  Level FlightAware Approximate
06:14PM 33.3699 -81.9645 239° Southwest  Level Estimated
06:15PM 33.3699 -81.9645 239° Southwest  Level Estimated
06:16PM 33.3699 -81.9645 239° Southwest  Level Estimated
06:17PM 33.3699 -81.9645 239° Southwest  Level Estimated
06:18PM 33.3699 -81.9645 239° Southwest  Level Estimated
06:19PM 33.3699 -81.9645 239° Southwest  Level Estimated
06:20PM 33.3699 -81.9645 239° Southwest  Level Estimated